Time;durP1;ratioP1;P1;durP2;ratioP2;P2;SDS_P1;SDS_P2;PMS_P1;PMS_P2;Temp;Humidity;BMP_temperature;BMP_pressure;BME280_temperature;BME280_humidity;BME280_pressure;Samples;Min_cycle;Max_cycle;Signal;HPM_P1;HPM_P2
2023/11/28 00:01:50;;;;;;;10.10;6.47;;;;;;;;;;10416297;27;20070;-55
2023/11/28 00:06:51;;;;;;;4.82;4.03;;;;;;;;;;10415798;27;20101;-53
2023/11/28 00:11:49;;;;;;;5.25;4.05;;;;;;;;;;10408832;27;20082;-57
2023/11/28 00:16:47;;;;;;;5.10;3.85;;;;;;;;;;10411652;27;20082;-55
2023/11/28 00:21:45;;;;;;;3.67;3.28;;;;;;;;;;10417495;27;20067;-54
2023/11/28 00:26:47;;;;;;;3.47;2.95;;;;;;;;;;10416799;27;20066;-56
2023/11/28 00:31:46;;;;;;;3.08;2.80;;;;;;;;;;10416633;27;20542;-55
2023/11/28 00:36:44;;;;;;;5.10;3.95;;;;;;;;;;10396006;27;20044;-54
2023/11/28 00:41:42;;;;;;;7.90;5.47;;;;;;;;;;10415121;27;20051;-56
2023/11/28 00:46:42;;;;;;;6.60;5.03;;;;;;;;;;10415767;27;20067;-55
2023/11/28 00:51:42;;;;;;;3.15;2.88;;;;;;;;;;10417059;27;20481;-53
2023/11/28 00:56:40;;;;;;;3.55;3.22;;;;;;;;;;10417125;27;20067;-54
2023/11/28 01:01:38;;;;;;;7.65;5.72;;;;;;;;;;10416328;27;20067;-53
2023/11/28 01:06:38;;;;;;;12.52;8.70;;;;;;;;;;10415136;27;20083;-55
2023/11/28 01:11:37;;;;;;;11.98;7.88;;;;;;;;;;10414684;28;20063;-54
2023/11/28 01:16:35;;;;;;;18.23;13.18;;;;;;;;;;10395944;28;20089;-55
2023/11/28 01:21:33;;;;;;;9.43;7.40;;;;;;;;;;10414509;28;20152;-55
2023/11/28 01:26:33;;;;;;;13.25;9.25;;;;;;;;;;10417313;27;20075;-54
2023/11/28 01:31:31;;;;;;;9.13;7.00;;;;;;;;;;10422472;27;20074;-53
2023/11/28 01:36:29;;;;;;;17.83;10.02;;;;;;;;;;10423231;27;20179;-53
2023/11/28 01:41:28;;;;;;;13.88;9.65;;;;;;;;;;10423087;27;20102;-51
2023/11/28 01:46:28;;;;;;;12.43;8.85;;;;;;;;;;10422446;27;20089;-56
2023/11/28 01:51:26;;;;;;;8.13;6.40;;;;;;;;;;10418386;27;20047;-55
2023/11/28 01:56:25;;;;;;;3.38;2.90;;;;;;;;;;10424131;27;20067;-56
2023/11/28 02:01:23;;;;;;;5.35;3.10;;;;;;;;;;10422665;27;20078;-55
2023/11/28 02:06:26;;;;;;;3.58;2.78;;;;;;;;;;10421985;27;20070;-53
2023/11/28 02:11:24;;;;;;;4.25;3.60;;;;;;;;;;10422880;27;20067;-49
2023/11/28 02:16:22;;;;;;;3.63;2.00;;;;;;;;;;10421845;27;20083;-52
2023/11/28 02:21:20;;;;;;;4.88;3.63;;;;;;;;;;10421903;27;20062;-50
2023/11/28 02:26:22;;;;;;;2.60;2.40;;;;;;;;;;10421525;27;20074;-52
2023/11/28 02:31:20;;;;;;;1.88;1.77;;;;;;;;;;10415890;27;20056;-51
2023/11/28 02:36:20;;;;;;;2.33;2.05;;;;;;;;;;10416759;27;20070;-55
2023/11/28 02:41:18;;;;;;;1.77;1.67;;;;;;;;;;10421222;27;20441;-54
2023/11/28 02:46:18;;;;;;;3.38;3.10;;;;;;;;;;10416624;27;20062;-54
2023/11/28 02:51:19;;;;;;;1.80;1.70;;;;;;;;;;10420416;27;20067;-52
2023/11/28 02:56:18;;;;;;;2.25;2.05;;;;;;;;;;10420742;27;20078;-52
2023/11/28 03:01:18;;;;;;;1.92;1.80;;;;;;;;;;10418785;27;20094;-51
2023/11/28 03:06:16;;;;;;;1.92;1.83;;;;;;;;;;10419783;27;20063;-50
2023/11/28 03:11:16;;;;;;;2.00;1.90;;;;;;;;;;10399870;27;20086;-50
2023/11/28 03:16:14;;;;;;;1.95;1.85;;;;;;;;;;10420182;27;20077;-53
2023/11/28 03:21:14;;;;;;;1.77;1.67;;;;;;;;;;10420171;27;20603;-53
2023/11/28 03:26:12;;;;;;;2.95;2.67;;;;;;;;;;10419620;27;20073;-50
2023/11/28 03:31:10;;;;;;;2.28;2.08;;;;;;;;;;10397461;27;20086;-51
2023/11/28 03:36:17;;;;;;;2.30;2.10;;;;;;;;;;10419804;27;20067;-50
2023/11/28 03:41:16;;;;;;;2.00;1.90;;;;;;;;;;10412982;27;20055;-52
2023/11/28 03:46:14;;;;;;;2.22;2.03;;;;;;;;;;10418940;27;20058;-53
2023/11/28 03:51:13;;;;;;;2.35;2.22;;;;;;;;;;10419055;27;20082;-52
2023/11/28 03:56:14;;;;;;;2.03;1.92;;;;;;;;;;10418279;27;20062;-49
2023/11/28 04:01:13;;;;;;;2.40;2.20;;;;;;;;;;10417248;27;20097;-49
2023/11/28 04:06:12;;;;;;;2.60;2.22;;;;;;;;;;10417443;27;20090;-51
2023/11/28 04:11:11;;;;;;;2.38;2.17;;;;;;;;;;10396408;27;20078;-52
2023/11/28 04:16:15;;;;;;;2.58;2.40;;;;;;;;;;10416556;27;20538;-52
2023/11/28 04:21:16;;;;;;;4.18;2.60;;;;;;;;;;10413971;27;20075;-53
2023/11/28 04:26:15;;;;;;;2.42;2.22;;;;;;;;;;10398233;27;20168;-51
2023/11/28 04:31:18;;;;;;;4.03;2.53;;;;;;;;;;10418029;27;20075;-52
2023/11/28 04:36:19;;;;;;;2.50;2.30;;;;;;;;;;10418769;27;20067;-51
2023/11/28 04:41:18;;;;;;;2.60;2.40;;;;;;;;;;10411656;27;20086;-55
2023/11/28 04:46:18;;;;;;;2.10;2.00;;;;;;;;;;10413323;27;20085;-50
2023/11/28 04:51:17;;;;;;;3.58;2.90;;;;;;;;;;10412392;27;20082;-52
2023/11/28 04:56:15;;;;;;;11.93;8.35;;;;;;;;;;10396637;27;20075;-50
2023/11/28 05:01:15;;;;;;;4.90;3.88;;;;;;;;;;10414010;27;20089;-53
2023/11/28 05:06:15;;;;;;;15.25;9.00;;;;;;;;;;10424536;27;20062;-53
2023/11/28 05:11:16;;;;;;;11.30;7.50;;;;;;;;;;10407197;28;20075;-52
2023/11/28 05:16:15;;;;;;;43.83;31.02;;;;;;;;;;10415437;28;20141;-52
2023/11/28 05:21:13;;;;;;;32.60;20.55;;;;;;;;;;10405696;28;20071;-53
2023/11/28 05:26:20;;;;;;;5.90;5.25;;;;;;;;;;10427845;28;20470;-55
2023/11/28 05:31:20;;;;;;;15.52;11.63;;;;;;;;;;10417161;28;20083;-55
2023/11/28 05:36:18;;;;;;;6.60;4.65;;;;;;;;;;10390626;28;20109;-54
2023/11/28 05:41:17;;;;;;;11.80;7.47;;;;;;;;;;10408418;28;20068;-55
2023/11/28 05:46:18;;;;;;;4.15;3.33;;;;;;;;;;10394429;28;20122;-51
2023/11/28 05:51:16;;;;;;;21.88;11.88;;;;;;;;;;10415576;28;20090;-56
2023/11/28 05:56:14;;;;;;;6.75;4.05;;;;;;;;;;10415758;28;20067;-54
2023/11/28 06:01:14;;;;;;;6.85;3.85;;;;;;;;;;10416314;28;20519;-55
2023/11/28 06:06:14;;;;;;;10.68;6.85;;;;;;;;;;10410009;28;20518;-55
2023/11/28 06:11:12;;;;;;;8.75;5.43;;;;;;;;;;10409079;28;20591;-53
2023/11/28 06:16:13;;;;;;;17.02;9.52;;;;;;;;;;10432286;27;20066;-55
2023/11/28 06:21:11;;;;;;;7.47;4.30;;;;;;;;;;10415243;27;20534;-54
2023/11/28 06:26:12;;;;;;;3.63;3.33;;;;;;;;;;10411186;27;20476;-55
2023/11/28 06:31:10;;;;;;;4.93;3.22;;;;;;;;;;10428173;27;20525;-54
2023/11/28 06:36:09;;;;;;;5.22;4.03;;;;;;;;;;10435894;27;20562;-55
2023/11/28 06:41:08;;;;;;;2.60;2.40;;;;;;;;;;10430959;27;20050;-53
2023/11/28 06:46:08;;;;;;;2.67;2.47;;;;;;;;;;10429242;27;20063;-54
2023/11/28 06:51:08;;;;;;;4.03;3.08;;;;;;;;;;10429373;27;20074;-52
2023/11/28 06:56:06;;;;;;;2.40;2.20;;;;;;;;;;10427713;27;20126;-55
2023/11/28 07:01:06;;;;;;;4.85;3.60;;;;;;;;;;10427496;27;20561;-54
2023/11/28 07:06:07;;;;;;;6.93;5.60;;;;;;;;;;10427437;27;20070;-53
2023/11/28 07:11:05;;;;;;;2.65;2.42;;;;;;;;;;10427713;27;20488;-52
2023/11/28 07:16:03;;;;;;;4.50;3.80;;;;;;;;;;10428916;27;20071;-54
2023/11/28 07:21:02;;;;;;;4.57;3.97;;;;;;;;;;10425564;27;20063;-55
2023/11/28 07:26:01;;;;;;;5.25;4.22;;;;;;;;;;10433007;27;20097;-52
2023/11/28 07:31:00;;;;;;;3.83;3.45;;;;;;;;;;10428868;27;20158;-54
2023/11/28 07:35:58;;;;;;;11.82;10.27;;;;;;;;;;10431502;27;20086;-55
2023/11/28 07:40:56;;;;;;;46.13;25.90;;;;;;;;;;10428450;27;20109;-51
2023/11/28 07:45:56;;;;;;;40.47;25.98;;;;;;;;;;10429624;27;20066;-54
2023/11/28 07:50:54;;;;;;;13.75;7.53;;;;;;;;;;10427470;27;20165;-51
2023/11/28 07:55:53;;;;;;;7.28;5.85;;;;;;;;;;10427430;27;20118;-54
2023/11/28 08:00:51;;;;;;;11.50;9.30;;;;;;;;;;10426693;27;20534;-56
2023/11/28 08:05:51;;;;;;;28.10;19.95;;;;;;;;;;10426975;27;20077;-55
2023/11/28 08:10:49;;;;;;;65.20;37.80;;;;;;;;;;10424697;27;20082;-53
2023/11/28 08:15:48;;;;;;;70.90;37.40;;;;;;;;;;10425489;27;20074;-50
2023/11/28 08:20:47;;;;;;;14.15;10.85;;;;;;;;;;10418549;27;20079;-55
2023/11/28 08:25:46;;;;;;;28.85;16.48;;;;;;;;;;10426129;27;20082;-55
2023/11/28 08:30:44;;;;;;;10.30;7.15;;;;;;;;;;10426934;27;20059;-51
2023/11/28 08:35:43;;;;;;;5.38;4.85;;;;;;;;;;10429816;27;20067;-54
2023/11/28 08:40:41;;;;;;;4.07;3.67;;;;;;;;;;10428351;27;21016;-55
2023/11/28 08:45:40;;;;;;;6.32;5.72;;;;;;;;;;10427765;27;20070;-57
2023/11/28 08:50:39;;;;;;;4.20;3.80;;;;;;;;;;10430218;27;20123;-53
2023/11/28 08:55:37;;;;;;;5.78;4.55;;;;;;;;;;10425578;27;20067;-56
2023/11/28 09:00:36;;;;;;;8.35;7.65;;;;;;;;;;10418844;27;20075;-55
2023/11/28 09:05:36;;;;;;;6.25;5.65;;;;;;;;;;10427134;27;20070;-56
2023/11/28 09:10:34;;;;;;;4.88;4.38;;;;;;;;;;10425903;28;20071;-53
2023/11/28 09:15:32;;;;;;;2.90;2.70;;;;;;;;;;10425933;28;20832;-56
2023/11/28 09:20:31;;;;;;;5.75;5.10;;;;;;;;;;10427800;28;20535;-54
2023/11/28 09:25:31;;;;;;;3.50;3.20;;;;;;;;;;10400563;27;20157;-52
2023/11/28 09:30:29;;;;;;;5.72;4.53;;;;;;;;;;10412330;28;20122;-53
2023/11/28 09:35:27;;;;;;;4.43;4.03;;;;;;;;;;10424945;28;20927;-57
2023/11/28 09:40:26;;;;;;;5.47;4.97;;;;;;;;;;10417220;28;20118;-52
2023/11/28 09:45:26;;;;;;;12.88;11.48;;;;;;;;;;10425739;28;20071;-50
2023/11/28 09:50:25;;;;;;;3.95;3.60;;;;;;;;;;10432690;27;20074;-58
2023/11/28 09:55:24;;;;;;;8.10;7.30;;;;;;;;;;10435935;27;20067;-60
2023/11/28 10:00:23;;;;;;;4.63;4.20;;;;;;;;;;10434802;27;20067;-59
2023/11/28 10:05:22;;;;;;;6.30;5.47;;;;;;;;;;10432757;27;20074;-60
2023/11/28 10:10:22;;;;;;;11.80;7.55;;;;;;;;;;10428775;27;20536;-59
2023/11/28 10:15:25;;;;;;;6.88;5.68;;;;;;;;;;10429928;27;20079;-59
2023/11/28 10:20:27;;;;;;;6.63;6.00;;;;;;;;;;10424053;27;20070;-60
2023/11/28 10:25:27;;;;;;;8.48;7.68;;;;;;;;;;10417506;27;20090;-59
2023/11/28 10:30:25;;;;;;;4.30;3.90;;;;;;;;;;10414683;27;20146;-58
2023/11/28 10:35:24;;;;;;;15.60;12.95;;;;;;;;;;10415926;27;20129;-59
2023/11/28 10:40:24;;;;;;;29.30;23.48;;;;;;;;;;10416793;27;20127;-58
2023/11/28 10:45:23;;;;;;;18.92;12.85;;;;;;;;;;10425267;27;20066;-58
2023/11/28 10:50:22;;;;;;;22.67;14.20;;;;;;;;;;10400344;27;21236;-58
2023/11/28 10:55:24;;;;;;;12.20;6.68;;;;;;;;;;10419501;27;20055;-58
2023/11/28 11:00:24;;;;;;;285.27;251.68;;;;;;;;;;10416040;27;20548;-60
2023/11/28 11:05:23;;;;;;;70.93;61.20;;;;;;;;;;10428759;27;20075;-57
2023/11/28 11:10:23;;;;;;;8.88;8.07;;;;;;;;;;10421276;27;20150;-59
2023/11/28 11:15:24;;;;;;;12.18;8.80;;;;;;;;;;10414673;27;20071;-55
2023/11/28 11:20:25;;;;;;;10.77;8.98;;;;;;;;;;10419228;27;20071;-58
2023/11/28 11:25:38;;;;;;;17.65;11.57;;;;;;;;;;10412457;27;20125;-57
2023/11/28 11:30:37;;;;;;;260.90;218.48;;;;;;;;;;10423162;27;20118;-59
2023/11/28 11:35:50;;;;;;;34.13;23.13;;;;;;;;;;10427036;27;20067;-58
2023/11/28 11:40:49;;;;;;;23.83;14.38;;;;;;;;;;10427567;27;20071;-59
2023/11/28 11:45:48;;;;;;;24.13;14.80;;;;;;;;;;10425343;27;20219;-58
2023/11/28 11:50:46;;;;;;;38.80;22.48;;;;;;;;;;10419852;27;20129;-58
2023/11/28 11:55:45;;;;;;;62.50;38.22;;;;;;;;;;10430614;27;20063;-59
2023/11/28 12:00:46;;;;;;;32.88;21.52;;;;;;;;;;10423993;27;20086;-58
2023/11/28 12:05:49;;;;;;;51.83;33.60;;;;;;;;;;10427317;27;20147;-58
2023/11/28 12:10:48;;;;;;;55.75;43.03;;;;;;;;;;10424901;27;20868;-58
2023/11/28 12:15:47;;;;;;;44.72;29.92;;;;;;;;;;10423816;27;20126;-59
2023/11/28 12:20:45;;;;;;;33.08;24.95;;;;;;;;;;10426545;27;20094;-59
2023/11/28 12:25:45;;;;;;;55.35;35.42;;;;;;;;;;10426990;27;20143;-59
2023/11/28 12:30:44;;;;;;;38.33;27.70;;;;;;;;;;10427262;27;20129;-59
2023/11/28 12:35:47;;;;;;;55.38;36.28;;;;;;;;;;10429372;27;20070;-59
2023/11/28 12:40:45;;;;;;;44.15;30.60;;;;;;;;;;10428472;27;20081;-60
2023/11/28 12:45:47;;;;;;;15.75;13.52;;;;;;;;;;10428590;27;20059;-59
2023/11/28 12:50:46;;;;;;;26.55;21.35;;;;;;;;;;10426559;27;20077;-57
2023/11/28 12:55:45;;;;;;;25.67;18.60;;;;;;;;;;10432562;27;20066;-58
2023/11/28 13:00:43;;;;;;;20.25;17.70;;;;;;;;;;10427627;27;20097;-59
2023/11/28 13:05:41;;;;;;;31.35;22.83;;;;;;;;;;10424869;27;20094;-58
2023/11/28 13:10:41;;;;;;;34.33;26.95;;;;;;;;;;10427109;27;20065;-59
2023/11/28 13:15:39;;;;;;;31.13;21.33;;;;;;;;;;10429156;28;20067;-57
2023/11/28 13:20:37;;;;;;;40.83;31.95;;;;;;;;;;10430606;28;20492;-59
2023/11/28 13:25:35;;;;;;;41.72;33.42;;;;;;;;;;10431249;27;20086;-58
2023/11/28 13:30:35;;;;;;;36.22;26.52;;;;;;;;;;10436278;27;20462;-59
2023/11/28 13:35:33;;;;;;;55.45;44.38;;;;;;;;;;10436830;27;20070;-59
2023/11/28 13:40:32;;;;;;;24.30;18.45;;;;;;;;;;10437130;27;20082;-58
2023/11/28 13:45:33;;;;;;;19.95;17.80;;;;;;;;;;10435983;27;20086;-59
2023/11/28 13:50:34;;;;;;;7.97;6.88;;;;;;;;;;10430982;27;20164;-58
2023/11/28 13:55:33;;;;;;;6.72;6.07;;;;;;;;;;10437626;27;20065;-59
2023/11/28 14:00:31;;;;;;;5.18;4.65;;;;;;;;;;10436333;27;20082;-58
2023/11/28 14:05:29;;;;;;;4.03;3.60;;;;;;;;;;10435358;27;20448;-59
2023/11/28 14:10:29;;;;;;;6.78;6.07;;;;;;;;;;10432283;27;20097;-58
2023/11/28 14:15:27;;;;;;;22.27;14.82;;;;;;;;;;10434770;27;20069;-58
2023/11/28 14:20:26;;;;;;;6.07;4.05;;;;;;;;;;10430871;27;20086;-59
2023/11/28 14:25:24;;;;;;;5.72;4.63;;;;;;;;;;10430929;27;20077;-59
2023/11/28 14:30:23;;;;;;;5.75;4.90;;;;;;;;;;10431472;27;20514;-59
2023/11/28 14:35:22;;;;;;;7.22;5.60;;;;;;;;;;10421568;27;20071;-58
2023/11/28 14:40:20;;;;;;;5.72;4.18;;;;;;;;;;10419448;27;20078;-59
2023/11/28 14:45:18;;;;;;;6.90;5.78;;;;;;;;;;10418142;27;20086;-59
2023/11/28 14:50:18;;;;;;;4.90;4.40;;;;;;;;;;10418621;27;20140;-60
2023/11/28 14:55:16;;;;;;;6.38;4.55;;;;;;;;;;10418201;27;20078;-60
2023/11/28 15:00:16;;;;;;;6.72;5.60;;;;;;;;;;10418568;27;20101;-58
2023/11/28 15:05:15;;;;;;;9.40;7.90;;;;;;;;;;10419703;27;20388;-60
2023/11/28 15:10:15;;;;;;;12.48;11.00;;;;;;;;;;10415115;27;20633;-60
2023/11/28 15:15:14;;;;;;;6.28;5.63;;;;;;;;;;10419686;27;20079;-59
2023/11/28 15:20:13;;;;;;;52.33;42.65;;;;;;;;;;10418976;27;20075;-59
2023/11/28 15:25:11;;;;;;;17.98;15.13;;;;;;;;;;10424279;27;20071;-60
2023/11/28 15:30:11;;;;;;;5.82;5.32;;;;;;;;;;10434468;27;20062;-60
2023/11/28 15:35:11;;;;;;;8.52;6.20;;;;;;;;;;10429362;27;20134;-59
2023/11/28 15:40:12;;;;;;;8.13;6.90;;;;;;;;;;10407002;27;20074;-60
2023/11/28 15:45:12;;;;;;;8.40;7.50;;;;;;;;;;10418319;27;20071;-60
2023/11/28 15:50:12;;;;;;;8.55;7.70;;;;;;;;;;10413641;27;20071;-61
2023/11/28 15:55:11;;;;;;;6.97;6.28;;;;;;;;;;10413539;27;20070;-60
2023/11/28 16:00:10;;;;;;;7.15;6.45;;;;;;;;;;10418230;27;20085;-59
2023/11/28 16:05:09;;;;;;;12.15;9.27;;;;;;;;;;10422963;27;20062;-60
2023/11/28 16:10:09;;;;;;;9.18;7.45;;;;;;;;;;10428789;27;20086;-60
2023/11/28 16:15:08;;;;;;;9.02;7.55;;;;;;;;;;10430402;27;20063;-60
2023/11/28 16:20:08;;;;;;;16.58;13.73;;;;;;;;;;10431945;27;20067;-61
2023/11/28 16:25:08;;;;;;;42.03;27.50;;;;;;;;;;10424437;27;20105;-60
2023/11/28 16:30:08;;;;;;;27.20;22.52;;;;;;;;;;10424917;27;20059;-60
2023/11/28 16:35:09;;;;;;;11.15;8.63;;;;;;;;;;10408216;27;20493;-60
2023/11/28 16:40:10;;;;;;;33.45;25.58;;;;;;;;;;10417697;27;20142;-59
2023/11/28 16:45:09;;;;;;;15.55;13.68;;;;;;;;;;10419536;27;20468;-61
2023/11/28 16:50:09;;;;;;;16.65;12.85;;;;;;;;;;10419921;27;20146;-60
2023/11/28 16:55:09;;;;;;;35.83;26.77;;;;;;;;;;10419485;27;21060;-59
2023/11/28 17:00:15;;;;;;;17.70;15.15;;;;;;;;;;10416226;27;20093;-59
2023/11/28 17:05:14;;;;;;;17.08;12.90;;;;;;;;;;10417321;27;20734;-60
2023/11/28 17:10:14;;;;;;;34.33;30.42;;;;;;;;;;10418029;27;20122;-61
2023/11/28 17:15:13;;;;;;;28.02;22.05;;;;;;;;;;10421347;28;20205;-62
2023/11/28 17:20:12;;;;;;;58.85;44.85;;;;;;;;;;10418271;28;20078;-60
2023/11/28 17:25:10;;;;;;;113.57;80.28;;;;;;;;;;10420176;28;20118;-60
2023/11/28 17:30:09;;;;;;;76.78;56.58;;;;;;;;;;10412213;28;20063;-60
2023/11/28 17:35:09;;;;;;;59.20;40.80;;;;;;;;;;10423563;28;20078;-61
2023/11/28 17:40:12;;;;;;;57.72;42.85;;;;;;;;;;10421849;28;20119;-62
2023/11/28 17:45:12;;;;;;;71.60;57.28;;;;;;;;;;10424059;28;20067;-62
2023/11/28 17:50:11;;;;;;;53.35;42.90;;;;;;;;;;10423693;28;20125;-62
2023/11/28 17:55:11;;;;;;;45.28;36.25;;;;;;;;;;10422786;28;20134;-62
2023/11/28 18:00:11;;;;;;;19.05;14.00;;;;;;;;;;10423007;28;20075;-63
2023/11/28 18:05:16;;;;;;;31.95;27.45;;;;;;;;;;10421883;27;20067;-62
2023/11/28 18:10:15;;;;;;;18.10;16.23;;;;;;;;;;10422666;27;20139;-60
2023/11/28 18:15:14;;;;;;;23.67;20.00;;;;;;;;;;10426465;27;20139;-60
2023/11/28 18:20:35;;;;;;;73.77;50.10;;;;;;;;;;10427242;27;20498;-61
2023/11/28 18:25:33;;;;;;;35.40;23.48;;;;;;;;;;10431546;27;20067;-61
2023/11/28 18:30:32;;;;;;;43.58;29.00;;;;;;;;;;10423624;27;20522;-62
2023/11/28 18:35:31;;;;;;;21.35;14.65;;;;;;;;;;10418966;27;20075;-61
2023/11/28 18:40:29;;;;;;;30.88;22.40;;;;;;;;;;10418748;27;20063;-61
2023/11/28 18:45:28;;;;;;;90.30;54.25;;;;;;;;;;10420791;27;20079;-61
2023/11/28 18:50:26;;;;;;;120.18;92.10;;;;;;;;;;10433641;27;20069;-61
2023/11/28 18:55:26;;;;;;;31.40;24.45;;;;;;;;;;10432317;27;20093;-61
2023/11/28 19:00:24;;;;;;;18.00;13.52;;;;;;;;;;10429036;27;20071;-62
2023/11/28 19:05:22;;;;;;;14.45;12.57;;;;;;;;;;10425878;27;20127;-61
2023/11/28 19:10:20;;;;;;;21.38;16.63;;;;;;;;;;10425042;27;20735;-61
2023/11/28 19:15:20;;;;;;;18.88;15.95;;;;;;;;;;10424503;27;20122;-61
2023/11/28 19:20:19;;;;;;;27.40;21.08;;;;;;;;;;10423078;27;20194;-61
2023/11/28 19:25:17;;;;;;;45.20;27.80;;;;;;;;;;10421729;27;20161;-61
2023/11/28 19:30:20;;;;;;;20.70;14.45;;;;;;;;;;10423246;27;20142;-61
2023/11/28 19:35:19;;;;;;;13.82;11.27;;;;;;;;;;10422912;27;20138;-62
2023/11/28 19:40:20;;;;;;;25.98;18.83;;;;;;;;;;10423357;27;20075;-61
2023/11/28 19:45:18;;;;;;;17.38;13.73;;;;;;;;;;10424654;27;20066;-61
2023/11/28 19:50:17;;;;;;;16.95;13.85;;;;;;;;;;10422514;27;20081;-61
2023/11/28 19:55:16;;;;;;;12.43;11.13;;;;;;;;;;10423161;27;20126;-61
2023/11/28 20:00:15;;;;;;;14.00;11.30;;;;;;;;;;10422205;27;20173;-61
2023/11/28 20:05:13;;;;;;;17.92;13.10;;;;;;;;;;10423172;27;20078;-62
2023/11/28 20:10:11;;;;;;;28.05;20.02;;;;;;;;;;10422389;27;20069;-62
2023/11/28 20:15:11;;;;;;;21.17;18.70;;;;;;;;;;10423361;27;20081;-61
2023/11/28 20:20:10;;;;;;;17.23;13.13;;;;;;;;;;10429184;27;20066;-62
2023/11/28 20:25:08;;;;;;;37.53;23.00;;;;;;;;;;10425241;27;20066;-61
2023/11/28 20:30:09;;;;;;;32.97;20.73;;;;;;;;;;10421545;27;20071;-61
2023/11/28 20:35:09;;;;;;;19.08;14.85;;;;;;;;;;10420795;27;20130;-61
2023/11/28 20:40:09;;;;;;;18.73;15.98;;;;;;;;;;10420310;27;20526;-60
2023/11/28 20:45:07;;;;;;;17.98;15.85;;;;;;;;;;10430204;27;20082;-61
2023/11/28 20:50:08;;;;;;;18.60;14.98;;;;;;;;;;10429637;27;20061;-61
2023/11/28 20:55:08;;;;;;;12.07;10.80;;;;;;;;;;10422204;27;21457;-61
2023/11/28 21:00:09;;;;;;;13.15;11.82;;;;;;;;;;10422176;27;20122;-61
2023/11/28 21:05:10;;;;;;;15.18;13.02;;;;;;;;;;10423543;27;20138;-61
2023/11/28 21:10:11;;;;;;;21.77;19.52;;;;;;;;;;10421927;27;20070;-60
2023/11/28 21:15:10;;;;;;;21.15;18.95;;;;;;;;;;10422662;27;20497;-60
2023/11/28 21:20:11;;;;;;;15.18;11.57;;;;;;;;;;10421391;28;20062;-60
2023/11/28 21:25:11;;;;;;;10.55;9.48;;;;;;;;;;10421803;28;20646;-61
2023/11/28 21:30:10;;;;;;;19.63;14.40;;;;;;;;;;10421903;28;20170;-61
2023/11/28 21:35:09;;;;;;;14.45;12.73;;;;;;;;;;10403297;28;20146;-61
2023/11/28 21:40:10;;;;;;;12.70;11.38;;;;;;;;;;10419474;28;20527;-60
2023/11/28 21:45:10;;;;;;;17.48;15.63;;;;;;;;;;10424506;27;20066;-61
2023/11/28 21:50:10;;;;;;;36.22;28.73;;;;;;;;;;10428654;27;20122;-61
2023/11/28 21:55:12;;;;;;;20.87;15.87;;;;;;;;;;10429334;27;20126;-61
2023/11/28 22:00:13;;;;;;;27.00;20.77;;;;;;;;;;10429488;27;20142;-61
2023/11/28 22:05:11;;;;;;;29.33;22.77;;;;;;;;;;10431213;27;20066;-61
2023/11/28 22:10:10;;;;;;;14.80;11.73;;;;;;;;;;10430352;27;20475;-62
2023/11/28 22:15:09;;;;;;;22.02;17.35;;;;;;;;;;10429347;27;20122;-60
2023/11/28 22:20:09;;;;;;;13.55;11.85;;;;;;;;;;10425100;27;20127;-61
2023/11/28 22:25:10;;;;;;;16.52;12.15;;;;;;;;;;10428014;27;20800;-61
2023/11/28 22:30:10;;;;;;;15.63;12.30;;;;;;;;;;10427976;27;20129;-60
2023/11/28 22:35:10;;;;;;;14.90;10.32;;;;;;;;;;10426670;27;20831;-60
2023/11/28 22:40:09;;;;;;;12.15;10.85;;;;;;;;;;10425768;27;20763;-60
2023/11/28 22:45:07;;;;;;;12.00;10.80;;;;;;;;;;10427491;27;20070;-60
2023/11/28 22:50:06;;;;;;;11.90;10.52;;;;;;;;;;10407646;27;20138;-61
2023/11/28 22:55:08;;;;;;;14.88;12.38;;;;;;;;;;10426999;27;20122;-60
2023/11/28 23:00:10;;;;;;;14.05;12.30;;;;;;;;;;10383721;28;20094;-61
2023/11/28 23:05:11;;;;;;;12.55;10.60;;;;;;;;;;10385422;28;20167;-59
2023/11/28 23:10:12;;;;;;;14.35;12.90;;;;;;;;;;10385740;28;20139;-60
2023/11/28 23:15:10;;;;;;;12.35;11.05;;;;;;;;;;10382095;28;20136;-60
2023/11/28 23:20:09;;;;;;;13.27;11.88;;;;;;;;;;10380461;28;20143;-61
2023/11/28 23:25:09;;;;;;;12.10;10.80;;;;;;;;;;10383387;28;20127;-60
2023/11/28 23:30:09;;;;;;;12.52;11.27;;;;;;;;;;10384287;28;20528;-60
2023/11/28 23:35:07;;;;;;;15.52;12.70;;;;;;;;;;10383714;28;21490;-60
2023/11/28 23:40:06;;;;;;;11.13;9.35;;;;;;;;;;10382255;28;20122;-60
2023/11/28 23:45:05;;;;;;;11.57;9.05;;;;;;;;;;10381149;28;20123;-61
2023/11/28 23:50:07;;;;;;;12.05;9.48;;;;;;;;;;10386497;28;20075;-59
2023/11/28 23:55:10;;;;;;;14.38;10.05;;;;;;;;;;10382596;28;20146;-60
